Terminal Aerodrome Forecast
Issued by NWS Missoula, MT

Home | Current Version | Previous Version | Text Only | Print | Product List | Glossary On
Versions: 1 2 3 4 5 6 7 8 9 10 11 12 13 14 15 16 17 18 19 20 21 22
771
FTUS45 KMSO 130520
TAFMSO
TAF
KMSO 130520Z 1306/1406 VRB03KT 6SM BR VCSH OVC050
     FM130800 28005KT 5SM -RA BR OVC025
     FM131300 30009KT 4SM -SNRA BR OVC015
     FM131700 30015G25KT P6SM VCSH OVC050
     FM140100 30009KT P6SM OVC050=

USA.gov is the U.S. government's official web portal to all federal, state and local government web resources and services.